Latest Weather Observations for Fingal

IDT60801

Issued at 8:05 am EST Saturday 26 July 2014 (issued every 30 minutes, with the page automatically refreshed every 10 minutes)

About weather observations | Map of weather stations | Latest weather observations for TAS | Other Formats
Station Details ID: 092012 Name: FINGAL (LEGGE STREET) Lat: -41.64 Lon: 147.97 Height: 237.0 m
Data from the previous 72 hours. | See also: Recent months at Fingal
Date/Time
EST
Temp
°C
App
Temp
°C
Dew
Point
Rel
Hum
%
Delta-T
°C
Wind Press
QNH
hPa
Press
MSL
hPa
Rain
since 9 am
mm
Dir
 
Spd
km/h
Gust
km/h
Spd
kts
Gust
kts
26/08:00am 5.0 3.0 4.3 95 0.3 WSW 4 7 2 4 - - 4.4
26/07:30am 5.0 3.7 4.3 95 0.3 WSW 0 0 0 0 - - 4.4
26/07:00am 4.9 3.6 4.2 95 0.3 CALM 0 0 0 0 - - 4.4
26/06:30am 4.9 3.6 4.0 94 0.4 CALM 0 0 0 0 - - 4.4
26/06:00am 4.9 3.6 4.0 94 0.4 CALM 0 0 0 0 - - 4.4
26/05:30am 5.0 3.7 4.1 94 0.4 CALM 0 0 0 0 - - 4.4
26/05:00am 5.3 4.1 4.4 94 0.4 CALM 0 0 0 0 - - 4.4
26/04:30am 5.5 4.3 4.6 94 0.4 CALM 0 0 0 0 - - 4.4
26/04:00am 5.7 4.5 4.8 94 0.4 CALM 0 0 0 0 - - 4.4
26/03:30am 5.7 4.5 4.8 94 0.4 CALM 0 0 0 0 - - 4.4
26/03:00am 5.9 4.8 5.0 94 0.4 CALM 0 0 0 0 - - 4.4
26/02:30am 6.1 5.0 5.2 94 0.4 CALM 0 0 0 0 - - 4.4
26/02:00am 6.2 4.4 5.3 94 0.4 N 4 7 2 4 - - 4.2
26/01:30am 6.3 4.5 5.4 94 0.4 SSE 4 6 2 3 - - 4.2
26/01:00am 6.4 5.4 5.5 94 0.4 CALM 0 0 0 0 - - 4.2
26/12:30am 6.8 5.9 5.9 94 0.4 CALM 0 2 0 1 - - 4.2
26/12:00am 6.9 4.8 6.0 94 0.4 S 6 7 3 4 - - 4.2
 
Date/Time
EST
Temp
°C
App
Temp
°C
Dew
Point
Rel
Hum
%
Delta-T
°C
Wind Press
QNH
hPa
Press
MSL
hPa
Rain
since 9 am
mm
Dir
 
Spd
km/h
Gust
km/h
Spd
kts
Gust
kts
25/11:30pm 7.1 6.2 6.2 94 0.4 CALM 0 0 0 0 - - 4.2
25/11:00pm 6.9 5.2 6.0 94 0.4 SE 4 6 2 3 - - 4.2
25/10:30pm 6.7 5.0 5.8 94 0.4 E 4 7 2 4 - - 4.2
25/10:00pm 6.7 5.3 5.7 93 0.5 SE 2 7 1 4 - - 4.2
25/09:30pm 6.9 5.9 5.8 93 0.5 SW 0 0 0 0 - - 4.2
25/09:00pm 7.1 6.2 6.0 93 0.5 CALM 0 0 0 0 - - 4.2
25/08:30pm 7.3 6.4 6.1 92 0.6 CALM 0 0 0 0 - - 4.2
25/08:00pm 8.0 6.9 6.8 92 0.6 SSE 2 7 1 4 - - 4.2
25/07:30pm 8.6 6.7 7.5 93 0.5 SSW 7 9 4 5 - - 4.2
25/07:00pm 8.9 7.2 7.7 92 0.6 SW 6 7 3 4 - - 4.2
25/06:30pm 9.2 7.6 8.0 92 0.6 WSW 6 7 3 4 - - 4.0
25/06:00pm 9.4 8.9 8.0 91 0.7 CALM 0 0 0 0 - - 3.8
25/05:30pm 9.8 8.3 8.4 91 0.7 S 6 11 3 6 - - 3.4
25/05:00pm 9.8 8.1 8.4 91 0.7 SW 7 11 4 6 - - 2.8
25/04:30pm 9.7 9.3 8.3 91 0.7 CALM 0 0 0 0 - - 2.8
25/04:00pm 9.8 8.3 8.4 91 0.7 W 6 9 3 5 - - 2.6
25/03:30pm 10.1 9.4 8.4 89 0.8 NNE 2 9 1 5 - - 2.2
25/03:00pm 10.4 8.7 8.2 86 1.1 NNE 7 9 4 5 - - 1.0
25/02:30pm 12.0 9.4 7.7 75 2.1 NNE 11 17 6 9 - - 0.4
25/02:00pm 12.6 10.9 7.7 72 2.4 E 6 11 3 6 - - 0.4
25/01:30pm 12.1 9.6 8.4 78 1.9 E 11 24 6 13 - - 0.4
25/01:00pm 12.7 11.0 8.4 75 2.2 NE 7 13 4 7 - - 0.0
25/12:30pm 13.3 11.6 8.2 71 2.6 ENE 7 11 4 6 - - 0.0
25/12:00pm 13.3 11.4 9.0 75 2.2 NE 9 15 5 8 - - 0.0
25/11:30am 13.4 13.1 10.2 81 1.7 SE 2 6 1 3 - - 0.0
25/11:00am 11.3 10.6 8.5 83 1.4 NE 2 7 1 4 - - 0.0
25/10:30am 11.0 9.5 8.4 84 1.3 N 6 7 3 4 - - 0.0
25/10:00am 9.6 8.1 8.4 92 0.6 ENE 6 7 3 4 - - 0.0
25/09:30am 7.4 5.5 6.5 94 0.4 NE 6 7 3 4 - - 0.0
25/09:00am 6.9 4.8 6.0 94 0.4 NNE 6 9 3 5 - - -
25/08:30am 6.7 5.7 5.8 94 0.4 CALM 0 6 0 3 - - -
25/08:00am 6.9 5.2 6.0 94 0.4 E 4 7 2 4 - - -
25/07:30am 6.6 4.3 5.7 94 0.4 NE 7 9 4 5 - - -
25/07:00am 6.5 4.7 5.6 94 0.4 NNE 4 11 2 6 - - -
25/06:30am 5.7 3.2 4.8 94 0.4 SE 7 9 4 5 - - -
25/06:00am 5.7 4.5 4.7 93 0.4 CALM 0 0 0 0 - - -
25/05:30am 5.7 3.2 4.8 94 0.4 E 7 13 4 7 - - -
25/05:00am 5.4 3.0 4.5 94 0.4 ESE 6 9 3 5 - - -
25/04:30am 5.0 3.3 4.0 93 0.4 SSE 2 7 1 4 - - -
25/04:00am 5.0 2.5 4.0 93 0.4 E 6 9 3 5 - - -
25/03:30am 4.8 3.4 3.8 93 0.4 CALM 0 0 0 0 - - -
25/03:00am 4.9 3.6 3.9 93 0.4 CALM 0 7 0 4 - - 0.0
25/02:30am 5.3 4.0 4.3 93 0.4 CALM 0 7 0 4 - - -
25/02:00am 5.6 3.6 4.6 93 0.4 SSE 4 9 2 5 - - -
25/01:30am 4.9 3.6 3.9 93 0.4 CALM 0 0 0 0 - - -
25/01:00am 5.4 3.0 4.4 93 0.4 SE 6 11 3 6 - - -
25/12:30am 4.4 3.0 3.4 93 0.4 CALM 0 6 0 3 - - -
25/12:00am 4.2 2.4 3.2 93 0.4 SE 2 7 1 4 - - -
 
Date/Time
EST
Temp
°C
App
Temp
°C
Dew
Point
Rel
Hum
%
Delta-T
°C
Wind Press
QNH
hPa
Press
MSL
hPa
Rain
since 9 am
mm
Dir
 
Spd
km/h
Gust
km/h
Spd
kts
Gust
kts
24/11:30pm 4.2 0.6 3.0 92 0.5 SSE 11 13 6 7 - - -
24/11:00pm 4.0 2.5 2.8 92 0.5 CALM 0 0 0 0 - - -
24/10:30pm 4.5 3.0 3.2 91 0.5 CALM 0 0 0 0 - - -
24/10:00pm 5.0 2.5 3.8 92 0.5 SSE 6 7 3 4 - - -
24/09:30pm 5.2 3.1 3.9 91 0.6 SSE 4 7 2 4 - - -
24/09:00pm 4.8 3.4 3.3 90 0.6 CALM 0 0 0 0 - - 0.0
24/08:30pm 5.1 3.7 3.6 90 0.6 CALM 0 0 0 0 - - -
24/08:00pm 5.8 4.5 4.1 89 0.7 CALM 0 0 0 0 - - -
24/07:30pm 5.8 4.5 4.1 89 0.7 CALM 0 0 0 0 - - -
24/07:00pm 6.0 3.4 4.0 87 0.9 SSE 7 9 4 5 - - -
24/06:30pm 7.0 4.7 4.7 85 1.0 SE 6 7 3 4 - - -
24/06:00pm 8.3 6.2 5.6 83 1.2 ESE 6 7 3 4 - - -
24/05:30pm 9.0 8.0 5.7 80 1.5 CALM 0 0 0 0 - - -
24/05:00pm 10.1 9.2 6.1 76 1.9 CALM 0 6 0 3 - - -
24/04:30pm 11.2 9.6 6.5 73 2.2 N 4 7 2 4 - - -
24/04:00pm 11.6 9.1 6.5 71 2.4 N 9 13 5 7 - - -
24/03:30pm 11.9 9.3 6.0 67 2.8 NE 9 15 5 8 - - -
24/03:00pm 11.9 8.8 5.5 65 3.0 NE 11 17 6 9 - - -
24/02:30pm 12.1 9.4 5.7 65 3.0 NE 9 19 5 10 - - -
24/02:00pm 12.0 9.3 5.4 64 3.1 NE 9 15 5 8 - - -
24/01:30pm 11.2 9.2 6.1 71 2.4 E 6 9 3 5 - - -
24/01:00pm 10.1 8.4 6.1 76 1.9 ENE 4 7 2 4 - - -
24/12:30pm 9.3 6.5 5.1 75 1.9 NNE 9 11 5 6 - - -
24/12:00pm 7.4 4.8 4.0 79 1.5 NNE 7 11 4 6 - - -
24/11:30am 6.2 3.0 3.2 81 1.3 NNE 9 11 5 6 - - 0.2
24/11:00am 5.1 1.9 2.8 85 1.0 NNE 9 11 5 6 - - 0.2
24/10:30am 3.5 0.5 2.0 90 0.6 NNE 7 9 4 5 - - 0.2
24/10:00am 1.7 -1.3 0.7 93 0.4 N 6 9 3 5 - - 0.2
24/09:30am -0.2 -3.5 -1.2 93 0.3 NNE 6 7 3 4 - - 0.2
24/09:00am -1.1 -4.1 -2.1 93 0.3 E 4 7 2 4 - - 0.0
24/08:30am -1.8 -4.2 -2.8 93 0.3 CALM 0 0 0 0 - - 0.0
24/08:00am -2.3 -4.7 -3.3 93 0.2 CALM 0 0 0 0 - - 0.0
24/07:30am -2.3 -4.7 -3.3 93 0.2 CALM 0 0 0 0 - - 0.0
24/07:00am -2.4 -5.2 -3.4 93 0.2 NNE 2 7 1 4 - - 0.0
24/06:30am -2.3 -4.7 -3.3 93 0.2 CALM 0 0 0 0 - - 0.0
24/06:00am -2.1 -4.5 -3.1 93 0.2 CALM 0 0 0 0 - - 0.0
24/05:30am -2.2 -4.6 -3.3 92 0.3 CALM 0 0 0 0 - - 0.0
24/05:00am -2.2 -4.6 -3.3 92 0.3 CALM 0 0 0 0 - - 0.0
24/04:30am -2.0 -4.4 -3.1 92 0.3 CALM 0 0 0 0 - - 0.0
24/04:00am -2.0 -4.4 -3.1 92 0.3 CALM 0 0 0 0 - - 0.0
24/03:30am -2.0 -4.4 -3.1 92 0.3 CALM 0 0 0 0 - - 0.0
24/03:00am -2.2 -4.6 -3.3 92 0.3 CALM 0 0 0 0 - - 0.0
24/02:30am -1.9 -4.3 -3.0 92 0.3 CALM 0 0 0 0 - - 0.0
24/02:00am -1.4 -3.7 -2.5 92 0.3 CALM 0 0 0 0 - - 0.0
24/01:30am -1.4 -3.7 -2.5 92 0.3 CALM 0 0 0 0 - - 0.0
24/01:00am -1.5 -3.8 -2.6 92 0.3 CALM 0 0 0 0 - - 0.0
24/12:30am -1.2 -4.6 -2.3 92 0.3 SE 6 7 3 4 - - 0.0
24/12:00am -1.2 -3.5 -2.5 91 0.4 CALM 0 6 0 3 - - 0.0
 
Date/Time
EST
Temp
°C
App
Temp
°C
Dew
Point
Rel
Hum
%
Delta-T
°C
Wind Press
QNH
hPa
Press
MSL
hPa
Rain
since 9 am
mm
Dir
 
Spd
km/h
Gust
km/h
Spd
kts
Gust
kts
23/11:30pm -0.4 -3.9 -1.7 91 0.4 SE 7 7 4 4 - - 0.0
23/11:00pm -0.9 -4.0 -2.3 90 0.4 SE 4 7 2 4 - - 0.0
23/10:30pm -0.8 -3.1 -2.4 89 0.5 CALM 0 0 0 0 - - 0.0
23/10:00pm 0.3 -3.2 -1.0 91 0.5 SE 7 9 4 5 - - 0.0
23/09:30pm 0.2 -2.0 -1.5 88 0.6 CALM 0 0 0 0 - - 0.0
23/09:00pm 0.6 -1.6 -1.3 87 0.7 CALM 0 0 0 0 - - 0.0
23/08:30pm 1.4 -0.7 -0.5 87 0.7 CALM 0 0 0 0 - - 0.0
23/08:00pm 2.4 0.5 0.3 86 0.8 CALM 0 0 0 0 - - 0.0
23/07:30pm 3.2 1.3 0.6 83 1.0 CALM 0 0 0 0 - - 0.0
23/07:00pm 4.3 1.8 1.5 82 1.1 ESE 4 7 2 4 - - 0.0
23/06:30pm 4.3 0.9 1.7 83 1.0 SE 9 11 5 6 - - 0.0
23/06:00pm 4.8 1.7 1.1 77 1.5 E 7 9 4 5 - - 0.0
23/05:30pm 5.5 3.3 1.2 74 1.7 ESE 2 7 1 4 - - 0.0
23/05:00pm 8.4 6.7 2.0 64 2.7 CALM 0 0 0 0 - - 0.0
23/04:30pm 11.0 8.0 2.1 54 3.8 NE 7 11 4 6 - - 0.0
23/04:00pm 10.6 7.7 2.4 57 3.6 NE 7 11 4 6 - - 0.0
23/03:30pm 11.4 7.8 2.7 55 3.8 NNE 11 17 6 9 - - 0.0
23/03:00pm 12.3 8.1 1.9 49 4.5 NE 13 19 7 10 - - 0.0
23/02:30pm 12.8 8.7 2.4 49 4.6 NNE 13 17 7 9 - - 0.0
23/02:00pm 12.8 9.5 2.4 49 4.6 NE 9 15 5 8 - - 0.0
23/01:30pm 12.1 9.3 3.1 54 4.0 NNE 7 11 4 6 - - 0.0
23/01:00pm 11.5 9.2 4.7 63 3.1 NNE 6 9 3 5 - - 0.0
23/12:30pm 9.3 6.6 3.7 68 2.5 N 7 11 4 6 - - 0.0
23/12:00pm 7.9 5.2 3.9 76 1.8 NNE 7 9 4 5 - - 0.0
23/11:30am 5.4 2.8 3.1 85 1.0 N 6 9 3 5 - - 0.0
23/11:00am 3.0 0.0 1.8 92 0.5 N 7 9 4 5 - - 0.0
23/10:30am 0.9 -1.5 -0.1 93 0.4 ENE 2 6 1 3 - - 0.0
23/10:00am -0.5 -2.7 -1.5 93 0.3 CALM 0 0 0 0 - - 0.0
23/09:30am -1.3 -3.6 -2.3 93 0.3 CALM 0 0 0 0 - - 0.0
23/09:00am -2.2 -4.6 -3.2 93 0.2 CALM 0 0 0 0 - - 0.0
23/08:30am -2.7 -5.2 -3.7 93 0.2 CALM 0 0 0 0 - - 0.0

Other Formats:

Comma delimited format used in spreadsheet applications
http://www.bom.gov.au/fwo/IDT60801/IDT60801.95974.axf

JavaScript Object Notation format (JSON) in row-major order
http://www.bom.gov.au/fwo/IDT60801/IDT60801.95974.json